Time;durP1;ratioP1;P1;durP2;ratioP2;P2;SDS_P1;SDS_P2;PMS_P1;PMS_P2;Temp;Humidity;BMP_temperature;BMP_pressure;BME280_temperature;BME280_humidity;BME280_pressure;Samples;Min_cycle;Max_cycle;Signal;HPM_P1;HPM_P2
2022/03/19 00:00:39;;;;;;;62.40;30.55;;;;;;;4.97;100.00;101216.03;5032959;28;20045;-84
2022/03/19 00:03:06;;;;;;;65.63;32.13;;;;;;;5.07;100.00;101229.78;5026807;28;20046;-84
2022/03/19 00:05:36;;;;;;;56.03;28.60;;;;;;;4.96;100.00;101209.75;5012768;28;20061;-84
2022/03/19 00:08:03;;;;;;;63.92;32.08;;;;;;;5.08;100.00;101218.91;5014287;28;20088;-84
2022/03/19 00:10:29;;;;;;;62.95;33.67;;;;;;;5.00;100.00;101213.16;5012513;28;20050;-84
2022/03/19 00:12:58;;;;;;;64.13;30.63;;;;;;;4.95;100.00;101226.03;5012922;28;20037;-84
2022/03/19 00:15:25;;;;;;;58.13;30.45;;;;;;;4.92;100.00;101208.25;5013434;28;20104;-84
2022/03/19 00:17:54;;;;;;;66.25;31.13;;;;;;;5.06;100.00;101222.66;5015278;28;20049;-84
2022/03/19 00:20:22;;;;;;;58.75;30.40;;;;;;;5.01;100.00;101208.59;5014836;28;20140;-84
2022/03/19 00:22:50;;;;;;;71.78;32.70;;;;;;;5.08;100.00;101216.19;5012393;28;20054;-86
2022/03/19 00:25:17;;;;;;;68.25;31.13;;;;;;;4.94;100.00;101203.63;5012621;28;20052;-84
2022/03/19 00:27:44;;;;;;;62.00;30.17;;;;;;;5.05;100.00;101218.25;5013244;28;20065;-84
2022/03/19 00:30:11;;;;;;;60.65;30.17;;;;;;;5.00;100.00;101213.16;5015978;28;20042;-84
2022/03/19 00:32:38;;;;;;;63.10;31.13;;;;;;;4.98;100.00;101198.88;5027130;28;20554;-83
2022/03/19 00:35:07;;;;;;;63.25;30.50;;;;;;;4.94;100.00;101203.63;5032196;28;20481;-84
2022/03/19 00:37:42;;;;;;;65.78;29.95;;;;;;;4.87;100.00;101196.03;5032155;28;20060;-84
2022/03/19 00:40:11;;;;;;;64.80;30.60;;;;;;;4.83;100.00;101183.69;5033234;28;20079;-84
2022/03/19 00:42:38;;;;;;;61.20;29.88;;;;;;;4.82;100.00;101190.03;5019713;28;20049;-84
2022/03/19 00:45:06;;;;;;;59.03;30.02;;;;;;;4.88;100.00;101189.69;5012860;28;20056;-84
2022/03/19 00:47:32;;;;;;;60.50;31.45;;;;;;;4.82;100.00;101190.94;5011779;28;20405;-84
2022/03/19 00:49:59;;;;;;;57.20;28.63;;;;;;;4.80;100.00;101192.84;5032000;28;20061;-84
2022/03/19 00:52:25;;;;;;;59.83;29.67;;;;;;;4.79;100.00;101188.44;5026688;28;20045;-84
2022/03/19 00:54:52;;;;;;;65.05;30.02;;;;;;;4.72;100.00;101184.41;5021587;28;20140;-84
2022/03/19 00:57:20;;;;;;;62.53;29.50;;;;;;;4.86;100.00;101196.97;5015832;28;20069;-84
2022/03/19 00:59:47;;;;;;;57.40;29.45;;;;;;;4.77;100.00;101184.94;5020338;28;20132;-84
2022/03/19 01:02:13;;;;;;;67.35;30.58;;;;;;;4.75;100.00;101182.34;5013858;28;20061;-84
2022/03/19 01:04:40;;;;;;;59.17;28.80;;;;;;;4.85;100.00;101201.50;5014644;28;20145;-85
2022/03/19 01:07:07;;;;;;;53.53;25.95;;;;;;;4.89;100.00;101196.78;5033528;28;20073;-85
2022/03/19 01:09:33;;;;;;;54.83;25.00;;;;;;;4.90;100.00;101193.13;5049790;28;20204;-84
2022/03/19 01:12:00;;;;;;;62.42;32.08;;;;;;;4.79;100.00;101177.66;5042853;28;20065;-84
2022/03/19 01:14:28;;;;;;;59.90;29.60;;;;;;;4.79;100.00;101186.59;5034367;28;20045;-84
2022/03/19 01:16:55;;;;;;;65.10;30.08;;;;;;;4.91;100.00;101202.97;5036316;28;20026;-84
2022/03/19 01:19:52;;;;;;;60.67;30.05;;;;;;;4.91;100.00;101189.47;5035609;28;20050;-84
2022/03/19 01:22:08;;;;;;;58.25;29.05;;;;;;;4.88;100.00;101192.38;5015781;28;20421;-85
2022/03/19 01:24:34;;;;;;;60.90;29.92;;;;;;;4.87;100.00;101204.13;5013678;28;20056;-84
2022/03/19 01:27:01;;;;;;;59.13;28.60;;;;;;;4.77;100.00;101184.94;5026070;28;20493;-84
2022/03/19 01:29:29;;;;;;;57.83;29.67;;;;;;;4.77;100.00;101196.63;5022745;28;20045;-83
2022/03/19 01:31:56;;;;;;;61.63;29.23;;;;;;;4.76;100.00;101189.50;5011522;28;20054;-83
2022/03/19 01:34:22;;;;;;;60.40;30.55;;;;;;;4.83;100.00;101195.34;5011614;28;20046;-84
2022/03/19 01:36:49;;;;;;;60.70;29.05;;;;;;;4.77;100.00;101175.06;5013512;28;20045;-84
2022/03/19 01:39:16;;;;;;;54.28;29.70;;;;;;;4.71;100.00;101183.53;5012787;28;20058;-84
2022/03/19 01:41:44;;;;;;;66.47;31.95;;;;;;;4.73;100.00;101191.53;5013251;28;20056;-83
2022/03/19 01:44:18;;;;;;;60.25;28.80;;;;;;;4.66;100.00;101177.56;5011654;28;20460;-84
2022/03/19 01:46:59;;;;;;;57.97;29.42;;;;;;;4.71;99.52;101175.47;5011144;28;20061;-85
2022/03/19 01:49:26;;;;;;;62.28;28.65;;;;;;;4.78;99.82;101192.94;5010952;28;20064;-84
2022/03/19 01:51:53;;;;;;;61.25;28.67;;;;;;;4.66;99.83;101164.09;5011875;28;20056;-84
2022/03/19 01:54:26;;;;;;;52.25;27.85;;;;;;;4.72;99.61;101177.16;5029728;28;20044;-84
2022/03/19 01:56:54;;;;;;;57.45;29.80;;;;;;;4.63;99.50;101164.28;5030565;28;20132;-84
2022/03/19 01:59:22;;;;;;;54.65;28.35;;;;;;;4.62;99.39;101165.25;5020740;28;20050;-84
2022/03/19 02:01:49;;;;;;;59.53;29.85;;;;;;;4.63;99.30;101166.97;5011822;28;20051;-85
2022/03/19 02:04:19;;;;;;;58.70;30.80;;;;;;;4.73;99.06;101188.84;5013497;28;20398;-84
2022/03/19 02:06:46;;;;;;;56.08;26.75;;;;;;;4.50;99.05;101147.16;5031761;28;20371;-85
2022/03/19 02:09:13;;;;;;;56.70;28.48;;;;;;;4.68;98.95;101182.84;5023598;28;20061;-84
2022/03/19 02:11:39;;;;;;;62.97;30.35;;;;;;;4.53;98.77;101161.31;5011876;28;20051;-84
2022/03/19 02:14:06;;;;;;;56.15;27.90;;;;;;;4.61;98.42;101175.16;5010858;28;20050;-85
2022/03/19 02:16:33;;;;;;;60.50;28.77;;;;;;;4.59;99.05;101177.09;5010681;28;20044;-84
2022/03/19 02:19:00;;;;;;;64.07;29.85;;;;;;;4.57;99.16;101189.78;5020936;28;20408;-84
2022/03/19 02:21:40;;;;;;;64.20;30.30;;;;;;;4.58;98.27;101172.66;5031255;28;20136;-85
2022/03/19 02:26:52;;;;;;;58.33;28.08;;;;;;;4.60;98.15;101200.34;5026611;28;20300;-84
2022/03/19 02:29:19;;;;;;;59.60;28.30;;;;;;;4.52;98.69;101177.59;5018317;28;20053;-85
2022/03/19 02:31:49;;;;;;;57.92;28.85;;;;;;;4.60;97.80;101183.34;5010748;28;20057;-85
2022/03/19 02:34:18;;;;;;;51.35;24.13;;;;;;;4.64;97.12;101184.88;5012383;28;20060;-83
2022/03/19 02:36:47;;;;;;;56.65;28.80;;;;;;;4.68;97.11;101190.94;5012271;28;20140;-84
2022/03/19 02:39:17;;;;;;;54.42;27.35;;;;;;;4.63;97.24;101183.13;5012747;28;20058;-84
2022/03/19 02:41:45;;;;;;;58.92;27.25;;;;;;;4.49;97.70;101167.00;5013328;28;20449;-85
2022/03/19 02:44:15;;;;;;;50.60;26.08;;;;;;;4.50;97.34;101176.78;5011749;28;20068;-84
2022/03/19 02:46:44;;;;;;;58.78;28.73;;;;;;;4.59;97.38;101176.22;5009019;28;20046;-84
2022/03/19 02:49:12;;;;;;;59.33;29.35;;;;;;;4.54;97.59;101183.72;5010151;28;20481;-84
2022/03/19 02:51:40;;;;;;;56.53;28.92;;;;;;;4.35;98.15;101160.66;5011068;28;20100;-84
2022/03/19 02:54:08;;;;;;;63.45;28.85;;;;;;;4.37;97.74;101155.16;5018680;28;20046;-84
2022/03/19 02:56:38;;;;;;;57.92;29.40;;;;;;;4.35;98.26;101159.75;5027372;28;20140;-84
2022/03/19 02:59:07;;;;;;;61.20;28.17;;;;;;;4.41;98.32;101176.44;5028214;28;20432;-84
2022/03/19 03:01:34;;;;;;;59.47;27.20;;;;;;;4.25;98.67;101159.50;5012057;28;20042;-84
2022/03/19 03:04:00;;;;;;;54.17;28.08;;;;;;;4.27;98.35;101168.31;5009466;28;20511;-84
2022/03/19 03:06:28;;;;;;;59.83;28.90;;;;;;;4.25;98.53;101165.72;5018539;28;20037;-84
2022/03/19 03:08:54;;;;;;;62.90;29.02;;;;;;;4.28;97.45;101158.44;5021663;28;20529;-85
2022/03/19 03:11:21;;;;;;;57.25;28.88;;;;;;;4.30;97.80;101157.38;5015569;28;20500;-84
2022/03/19 03:13:49;;;;;;;57.88;28.08;;;;;;;4.18;98.49;101156.28;5034211;28;20117;-84
2022/03/19 03:16:16;;;;;;;62.45;29.70;;;;;;;4.29;98.63;101168.22;5043146;28;20543;-84
2022/03/19 03:18:43;;;;;;;57.22;27.55;;;;;;;4.16;99.61;101171.69;5033130;28;20053;-85
2022/03/19 03:21:09;;;;;;;61.25;29.85;;;;;;;4.12;99.91;101167.44;5011309;28;20053;-84
2022/03/19 03:23:36;;;;;;;60.42;29.95;;;;;;;4.05;99.89;101160.69;5011406;28;20072;-84
2022/03/19 03:26:03;;;;;;;63.55;29.77;;;;;;;4.11;100.00;101168.44;5011961;28;20061;-84
2022/03/19 03:28:29;;;;;;;57.83;29.33;;;;;;;4.17;99.52;101167.16;5010718;28;20141;-84
2022/03/19 03:30:57;;;;;;;58.30;29.77;;;;;;;4.08;100.00;101160.53;5010519;28;20057;-84
2022/03/19 03:33:24;;;;;;;62.47;27.83;;;;;;;4.00;100.00;101141.28;5010413;28;20063;-83
2022/03/19 03:35:51;;;;;;;60.47;28.85;;;;;;;4.02;100.00;101148.31;5010874;28;20046;-84
2022/03/19 03:38:18;;;;;;;60.53;29.23;;;;;;;3.93;100.00;101139.94;5012637;28;20042;-84
2022/03/19 03:40:45;;;;;;;63.70;28.35;;;;;;;4.04;100.00;101156.28;5014332;28;20478;-84
2022/03/19 03:43:12;;;;;;;55.25;30.05;;;;;;;4.05;100.00;101152.63;5028814;28;20232;-84
2022/03/19 03:45:39;;;;;;;62.72;31.40;;;;;;;4.11;99.86;101159.47;5020229;28;20046;-84
2022/03/19 03:48:07;;;;;;;59.20;28.95;;;;;;;3.89;100.00;101155.41;5014295;28;20139;-84
2022/03/19 03:50:35;;;;;;;61.97;29.85;;;;;;;3.93;100.00;101151.56;5013413;28;20577;-84
2022/03/19 03:53:03;;;;;;;55.83;28.38;;;;;;;3.89;100.00;101158.09;5031976;28;20101;-84
2022/03/19 03:55:30;;;;;;;56.10;29.83;;;;;;;3.85;100.00;101146.66;5021131;28;20050;-84
2022/03/19 03:57:57;;;;;;;59.28;28.95;;;;;;;3.77;100.00;101161.53;5014331;28;20056;-84
2022/03/19 04:00:23;;;;;;;57.70;28.15;;;;;;;3.81;100.00;101146.91;5013913;28;20054;-84
2022/03/19 04:02:50;;;;;;;61.72;28.40;;;;;;;3.72;100.00;101141.13;5014285;28;20050;-84
2022/03/19 04:05:18;;;;;;;60.70;30.42;;;;;;;3.82;100.00;101154.88;5013537;28;20056;-84
2022/03/19 04:07:45;;;;;;;60.55;29.00;;;;;;;3.71;100.00;101141.22;5029643;28;20077;-84
2022/03/19 04:10:12;;;;;;;60.65;28.08;;;;;;;3.69;100.00;101156.63;5013725;28;20050;-84
2022/03/19 04:12:39;;;;;;;56.35;26.52;;;;;;;3.62;100.00;101149.88;5015821;28;20056;-84
2022/03/19 04:15:07;;;;;;;57.67;26.92;;;;;;;3.46;100.00;101136.44;5013254;28;20116;-84
2022/03/19 04:17:34;;;;;;;53.33;27.42;;;;;;;3.51;100.00;101137.06;5013411;28;20052;-84
2022/03/19 04:20:01;;;;;;;61.00;29.00;;;;;;;3.63;100.00;101149.78;5013694;28;20049;-84
2022/03/19 04:22:35;;;;;;;58.20;27.70;;;;;;;3.78;99.52;101148.00;5012811;28;20539;-84
2022/03/19 04:25:02;;;;;;;61.17;30.40;;;;;;;3.67;99.62;101119.03;5013763;28;20045;-84
2022/03/19 04:27:28;;;;;;;57.53;29.13;;;;;;;3.70;100.00;101137.69;5012658;28;20045;-84
2022/03/19 04:29:56;;;;;;;61.95;28.90;;;;;;;3.53;100.00;101133.28;5012219;28;20058;-84
2022/03/19 04:32:22;;;;;;;61.13;29.52;;;;;;;3.54;100.00;101129.66;5013603;28;20042;-84
2022/03/19 04:34:49;;;;;;;50.90;27.35;;;;;;;3.54;100.00;101128.81;5033036;28;20052;-84
2022/03/19 04:37:16;;;;;;;65.43;29.52;;;;;;;3.59;100.00;101145.53;5031250;28;20489;-84
2022/03/19 04:39:44;;;;;;;54.78;27.73;;;;;;;3.38;100.00;101128.84;5013346;28;20403;-84
2022/03/19 04:42:10;;;;;;;62.38;28.88;;;;;;;3.39;100.00;101125.19;5029656;28;20061;-84
2022/03/19 04:44:37;;;;;;;60.30;28.83;;;;;;;3.43;100.00;101136.63;5015725;28;20060;-84
2022/03/19 04:47:04;;;;;;;58.97;27.33;;;;;;;3.46;100.00;101136.44;5011357;28;20046;-84
2022/03/19 04:49:31;;;;;;;55.22;28.58;;;;;;;3.43;100.00;101118.66;5013033;28;20049;-84
2022/03/19 04:51:57;;;;;;;53.38;26.52;;;;;;;3.42;100.00;101113.38;5011823;28;20413;-84
2022/03/19 04:54:24;;;;;;;58.63;28.55;;;;;;;3.41;100.00;101130.47;5012148;28;20056;-83
2022/03/19 04:56:52;;;;;;;57.90;28.90;;;;;;;3.62;100.00;101133.72;5012546;28;20490;-84
2022/03/19 04:59:19;;;;;;;63.78;30.60;;;;;;;3.45;100.00;101135.59;5014811;28;20603;-84
2022/03/19 05:01:46;;;;;;;64.95;29.73;;;;;;;3.44;100.00;101117.72;5013161;28;20049;-84
2022/03/19 05:04:13;;;;;;;58.40;27.83;;;;;;;3.47;100.00;101127.44;5011932;28;20046;-84
2022/03/19 05:06:39;;;;;;;61.00;28.63;;;;;;;3.48;100.00;101131.88;5011771;28;20532;-83
2022/03/19 05:11:50;;;;;;;61.78;28.80;;;;;;;3.35;100.00;101131.72;5011149;28;20060;-84
2022/03/19 05:14:18;;;;;;;58.17;28.25;;;;;;;3.27;100.00;101132.16;5011748;28;20417;-84
2022/03/19 05:16:44;;;;;;;64.40;30.17;;;;;;;3.27;100.00;101123.25;5012575;28;20525;-84
2022/03/19 05:19:11;;;;;;;59.35;27.08;;;;;;;3.28;100.00;101111.50;5014092;28;20057;-85
2022/03/19 05:21:38;;;;;;;58.65;26.50;;;;;;;3.31;100.00;101116.69;5011095;28;20124;-83
2022/03/19 05:24:05;;;;;;;56.40;26.90;;;;;;;3.10;100.00;101094.63;5011236;28;20081;-82
2022/03/19 05:26:31;;;;;;;57.70;28.08;;;;;;;3.08;100.00;101113.53;5012304;28;20054;-83
2022/03/19 05:28:58;;;;;;;70.65;30.10;;;;;;;3.21;100.00;101104.75;5012333;28;20054;-84
2022/03/19 05:31:28;;;;;;;55.60;26.70;;;;;;;3.17;100.00;101129.13;5012316;28;20149;-84
2022/03/19 05:36:38;;;;;;;63.72;28.55;;;;;;;3.25;100.00;101115.25;5024076;28;20126;-84
2022/03/19 05:39:05;;;;;;;67.35;29.58;;;;;;;3.21;100.00;101112.81;5014510;28;20121;-83
2022/03/19 05:41:32;;;;;;;64.78;29.33;;;;;;;3.07;100.00;101092.13;5010403;28;20346;-83
2022/03/19 05:43:58;;;;;;;55.75;28.15;;;;;;;3.17;100.00;101104.06;5011087;28;20096;-84
2022/03/19 05:46:26;;;;;;;56.72;28.23;;;;;;;3.15;100.00;101103.31;5011475;28;20569;-84
2022/03/19 05:48:53;;;;;;;60.78;27.98;;;;;;;3.24;100.00;101118.00;5012064;28;20049;-83
2022/03/19 05:51:20;;;;;;;61.00;27.67;;;;;;;3.08;100.00;101097.41;5013809;28;20069;-84
2022/03/19 05:53:46;;;;;;;58.67;29.38;;;;;;;3.22;100.00;101118.09;5012941;28;20060;-83
2022/03/19 05:56:13;;;;;;;56.75;27.33;;;;;;;3.16;100.00;101118.47;5017258;28;20409;-83
2022/03/19 05:58:39;;;;;;;56.72;28.33;;;;;;;3.26;100.00;101108.91;5013161;28;20136;-83
2022/03/19 06:01:06;;;;;;;59.90;28.63;;;;;;;3.39;99.95;101110.88;5031014;28;20053;-84
2022/03/19 06:03:34;;;;;;;53.72;27.23;;;;;;;3.40;100.00;101110.78;5030270;28;20049;-84
2022/03/19 06:06:01;;;;;;;54.60;28.25;;;;;;;3.40;100.00;101109.91;5022225;28;20050;-83
2022/03/19 06:08:28;;;;;;;60.17;29.45;;;;;;;3.46;99.47;101118.50;5009837;28;20049;-81
2022/03/19 06:10:55;;;;;;;51.05;26.13;;;;;;;3.53;99.17;101111.78;5012648;28;20145;-84
2022/03/19 06:13:23;;;;;;;58.47;28.23;;;;;;;3.73;97.03;101093.56;5010380;28;20154;-84
2022/03/19 06:15:50;;;;;;;58.47;27.85;;;;;;;3.94;96.48;101109.38;5011330;28;20054;-84
2022/03/19 06:18:17;;;;;;;57.83;29.17;;;;;;;3.99;95.52;101110.81;5011781;28;20045;-84
2022/03/19 06:20:45;;;;;;;52.97;24.05;;;;;;;4.17;93.86;101103.44;5022640;28;20378;-84
2022/03/19 06:23:13;;;;;;;55.45;26.45;;;;;;;4.33;92.60;101105.16;5020259;28;20483;-84
2022/03/19 06:25:40;;;;;;;53.15;25.60;;;;;;;4.22;92.48;101093.22;5011362;28;20141;-85
2022/03/19 06:28:06;;;;;;;53.13;25.50;;;;;;;4.29;92.10;101103.59;5010461;28;20124;-84
2022/03/19 06:30:37;;;;;;;56.75;25.92;;;;;;;4.38;91.17;101116.47;5010916;28;20056;-84
2022/03/19 06:33:04;;;;;;;51.08;25.42;;;;;;;4.31;90.69;101086.41;5011633;28;20057;-84
2022/03/19 06:38:16;;;;;;;48.85;25.33;;;;;;;4.37;90.87;101085.16;5019772;28;20473;-84
2022/03/19 06:40:42;;;;;;;57.90;25.83;;;;;;;4.46;92.21;101105.22;5000776;28;20049;-85
2022/03/19 06:43:09;;;;;;;49.38;25.23;;;;;;;4.53;91.87;101111.94;5010601;28;20049;-83
2022/03/19 06:45:37;;;;;;;62.30;26.13;;;;;;;4.54;89.50;101114.53;5007654;28;20053;-81
2022/03/19 06:48:04;;;;;;;39.78;20.25;;;;;;;4.42;91.07;101083.88;5010911;28;20046;-82
2022/03/19 06:50:30;;;;;;;52.30;24.40;;;;;;;4.58;89.73;101104.47;5014960;28;20065;-85
2022/03/19 06:52:57;;;;;;;55.05;24.77;;;;;;;4.72;88.18;101112.50;5013229;28;20052;-84
2022/03/19 06:55:25;;;;;;;58.83;28.42;;;;;;;4.81;87.48;101099.41;5026411;28;20156;-85
2022/03/19 06:57:52;;;;;;;44.38;22.25;;;;;;;4.87;84.78;101097.16;5031145;28;20133;-85
2022/03/19 07:00:19;;;;;;;55.50;26.48;;;;;;;5.13;85.14;101108.03;5015840;28;20050;-84
2022/03/19 07:02:49;;;;;;;49.80;25.73;;;;;;;5.14;84.85;101110.63;5010476;28;20052;-84
2022/03/19 07:05:20;;;;;;;52.00;23.30;;;;;;;5.18;84.17;101097.84;5017256;28;20077;-84
2022/03/19 07:07:46;;;;;;;49.15;24.30;;;;;;;5.18;83.88;101095.13;5012705;28;20084;-84
2022/03/19 07:10:13;;;;;;;46.88;23.05;;;;;;;5.22;82.53;101107.44;5021426;28;20401;-84
2022/03/19 07:12:44;;;;;;;46.28;23.95;;;;;;;5.20;81.61;101097.72;5010687;28;20042;-84
2022/03/19 07:15:13;;;;;;;51.80;23.15;;;;;;;5.40;80.23;101101.78;5012194;28;20049;-84
2022/03/19 07:17:43;;;;;;;51.75;23.63;;;;;;;5.38;80.17;101087.53;5016089;28;20058;-84
2022/03/19 07:20:11;;;;;;;45.22;22.70;;;;;;;5.53;77.67;101097.28;5023633;28;20045;-84
2022/03/19 07:22:58;;;;;;;46.85;22.38;;;;;;;5.54;77.55;101090.91;5014355;28;20050;-84
2022/03/19 07:25:27;;;;;;;45.38;23.30;;;;;;;5.72;75.71;101091.47;5025499;28;20053;-84
2022/03/19 07:27:56;;;;;;;49.17;21.88;;;;;;;5.71;75.12;101102.38;5019339;28;20042;-84
2022/03/19 07:30:24;;;;;;;42.03;21.77;;;;;;;5.80;75.85;101074.75;5027399;28;20048;-84
2022/03/19 07:32:54;;;;;;;43.05;22.30;;;;;;;6.00;75.75;101098.53;5023438;28;20078;-84
2022/03/19 07:35:23;;;;;;;43.10;20.58;;;;;;;5.94;73.88;101085.44;5016584;28;20136;-84
2022/03/19 07:37:54;;;;;;;43.15;22.58;;;;;;;6.22;74.50;101091.63;5015669;28;20050;-85
2022/03/19 07:43:04;;;;;;;43.13;20.70;;;;;;;6.38;72.56;101085.97;5010294;28;20073;-83
2022/03/19 07:45:34;;;;;;;42.58;22.17;;;;;;;6.41;70.56;101095.69;5017306;28;20069;-84
2022/03/19 07:48:04;;;;;;;40.97;20.83;;;;;;;6.35;72.37;101089.78;5015192;28;20565;-83
2022/03/19 07:50:31;;;;;;;41.88;19.80;;;;;;;6.42;70.74;101083.94;5017117;28;20058;-83
2022/03/19 07:52:58;;;;;;;39.05;21.73;;;;;;;6.40;71.17;101080.44;5017877;28;20066;-83
2022/03/19 07:55:25;;;;;;;48.10;22.85;;;;;;;6.49;71.80;101093.31;5016118;28;20046;-84
2022/03/19 07:57:55;;;;;;;42.25;19.95;;;;;;;6.46;69.22;101086.28;5014496;28;20069;-83
2022/03/19 08:00:23;;;;;;;37.85;20.75;;;;;;;6.58;71.24;101081.84;5013867;28;20052;-83
2022/03/19 08:02:51;;;;;;;41.97;21.27;;;;;;;6.74;70.42;101076.16;5010615;28;20069;-84
2022/03/19 08:05:18;;;;;;;44.40;22.50;;;;;;;6.57;68.91;101087.34;5007810;28;20081;-83
2022/03/19 08:07:45;;;;;;;39.88;21.67;;;;;;;6.60;70.33;101093.38;5013581;28;20120;-84
2022/03/19 08:10:13;;;;;;;40.40;20.15;;;;;;;6.57;70.97;101072.00;5013931;28;20057;-84
2022/03/19 08:12:41;;;;;;;43.03;20.95;;;;;;;6.70;68.54;101099.84;5011659;28;20564;-83
2022/03/19 08:15:11;;;;;;;40.45;20.75;;;;;;;6.65;70.42;101074.97;5013454;28;20160;-83
2022/03/19 08:17:41;;;;;;;37.47;20.30;;;;;;;6.78;71.57;101087.63;5013333;28;20057;-84
2022/03/19 08:20:09;;;;;;;38.55;20.38;;;;;;;6.84;68.97;101077.19;5013584;28;20541;-84
2022/03/19 08:22:36;;;;;;;53.90;21.52;;;;;;;6.84;69.66;101063.69;5012546;28;20054;-84
2022/03/19 08:25:04;;;;;;;41.53;20.05;;;;;;;6.99;69.42;101071.63;5014037;28;20050;-84
2022/03/19 08:27:31;;;;;;;46.90;21.00;;;;;;;6.80;67.83;101058.63;5012518;28;20144;-86
2022/03/19 08:29:59;;;;;;;39.65;21.08;;;;;;;6.95;68.66;101089.06;5013098;28;20042;-84
2022/03/19 08:32:26;;;;;;;40.10;21.10;;;;;;;6.96;69.95;101078.13;5012774;28;20057;-84
2022/03/19 08:34:54;;;;;;;40.85;19.42;;;;;;;7.03;68.20;101076.69;5013296;28;20061;-84
2022/03/19 08:37:20;;;;;;;44.58;22.27;;;;;;;6.91;68.30;101069.50;5013169;28;20145;-84
2022/03/19 08:42:33;;;;;;;46.40;20.35;;;;;;;6.97;68.74;101062.75;5012304;28;20056;-84
2022/03/19 08:45:00;;;;;;;43.05;20.35;;;;;;;7.18;69.90;101060.28;5013178;28;20053;-85
2022/03/19 08:47:27;;;;;;;40.08;18.55;;;;;;;7.18;68.95;101057.56;5011952;28;20589;-87
2022/03/19 08:49:55;;;;;;;44.15;21.08;;;;;;;7.04;69.68;101045.09;5013055;28;20072;-85
2022/03/19 08:52:21;;;;;;;48.63;23.30;;;;;;;7.19;70.40;101051.19;5014906;28;20420;-85
2022/03/19 08:54:51;;;;;;;38.40;17.83;;;;;;;7.26;69.42;101047.88;5025743;28;20041;-85
2022/03/19 08:57:18;;;;;;;48.42;22.30;;;;;;;7.40;71.90;101043.28;5028015;28;20065;-84
2022/03/19 08:59:45;;;;;;;39.15;21.38;;;;;;;7.46;69.70;101052.75;5014651;28;20111;-84
2022/03/19 09:02:14;;;;;;;45.05;22.10;;;;;;;7.60;71.18;101045.31;5012425;28;20057;-85
2022/03/19 09:04:41;;;;;;;40.03;21.45;;;;;;;7.42;68.59;101031.34;5015187;28;20081;-85
2022/03/19 09:07:10;;;;;;;48.50;24.13;;;;;;;7.60;70.03;101053.41;5011518;28;20133;-85
2022/03/19 09:09:36;;;;;;;46.63;23.13;;;;;;;7.66;68.82;101049.34;5011166;28;20057;-85
2022/03/19 09:12:07;;;;;;;43.40;22.88;;;;;;;7.64;71.26;101040.50;5019235;28;20056;-85
2022/03/19 09:14:34;;;;;;;48.03;23.90;;;;;;;7.38;69.35;101010.06;5012450;28;20076;-85
2022/03/19 09:17:00;;;;;;;43.60;23.40;;;;;;;7.58;70.82;101009.34;5010616;28;20052;-85
2022/03/19 09:19:28;;;;;;;58.22;24.50;;;;;;;7.79;70.89;101028.44;5011793;28;20504;-86
2022/03/19 09:21:55;;;;;;;45.47;22.88;;;;;;;7.80;68.37;101010.38;5012281;28;20128;-85
2022/03/19 09:24:23;;;;;;;51.22;23.00;;;;;;;7.85;69.94;101012.72;5011910;28;20077;-85
2022/03/19 09:26:50;;;;;;;47.00;23.23;;;;;;;7.99;69.23;101015.16;5010828;28;20140;-84
2022/03/19 09:29:16;;;;;;;51.15;23.42;;;;;;;8.05;68.55;101011.13;5005556;28;20060;-85
2022/03/19 09:31:44;;;;;;;43.25;23.50;;;;;;;8.09;68.07;100999.91;5010131;28;20073;-85
2022/03/19 09:34:11;;;;;;;44.03;20.38;;;;;;;8.18;66.12;101001.03;5011919;28;20060;-84
2022/03/19 09:36:37;;;;;;;47.28;24.13;;;;;;;8.31;65.30;101000.91;5012690;28;20053;-85
2022/03/19 09:39:04;;;;;;;45.83;22.63;;;;;;;8.20;64.00;100988.19;5017422;28;20046;-85
2022/03/19 09:41:32;;;;;;;43.92;22.30;;;;;;;8.17;63.71;100993.00;5018935;28;20053;-85
2022/03/19 09:43:59;;;;;;;42.38;21.52;;;;;;;7.87;63.97;100964.72;5022985;28;20088;-84
2022/03/19 09:46:26;;;;;;;41.42;21.05;;;;;;;7.83;63.62;100944.28;5023160;28;20104;-85
2022/03/19 09:48:53;;;;;;;43.38;22.35;;;;;;;8.04;64.06;100955.22;5018125;28;20137;-84
2022/03/19 09:51:21;;;;;;;43.95;22.63;;;;;;;8.10;63.46;100946.59;5011480;28;20066;-84
2022/03/19 09:53:48;;;;;;;38.70;20.52;;;;;;;8.31;61.29;100952.97;5012354;28;20402;-84
2022/03/19 09:56:16;;;;;;;43.05;22.30;;;;;;;8.45;61.63;100968.13;5022446;28;20482;-85
2022/03/19 09:58:44;;;;;;;42.95;21.65;;;;;;;8.42;62.23;100926.84;5014792;28;20140;-84
2022/03/19 10:01:11;;;;;;;44.38;21.85;;;;;;;8.67;60.33;100940.09;5012488;28;20053;-84
2022/03/19 10:03:41;;;;;;;35.50;17.05;;;;;;;8.74;60.79;100942.28;5025982;28;20534;-86
2022/03/19 10:09:20;;;;;;;35.33;17.50;;;;;;;8.89;55.65;100918.41;5012154;28;20160;-86
2022/03/19 10:11:51;;;;;;;31.75;16.20;;;;;;;8.94;55.70;100900.75;5011328;28;20149;-86
2022/03/19 10:14:25;;;;;;;36.53;16.73;;;;;;;9.11;54.74;100915.59;5026295;28;20056;-84
2022/03/19 10:16:57;;;;;;;33.80;15.38;;;;;;;9.16;56.18;100898.91;5013242;28;20394;-85
2022/03/19 10:19:24;;;;;;;36.60;16.02;;;;;;;9.47;56.56;100915.19;5010954;28;20559;-86
2022/03/19 10:21:51;;;;;;;36.53;16.90;;;;;;;9.54;53.83;100911.84;5010177;28;20145;-85
2022/03/19 10:24:27;;;;;;;34.22;16.80;;;;;;;9.46;53.05;100905.34;5016470;28;20050;-85
2022/03/19 10:26:54;;;;;;;37.05;18.27;;;;;;;9.44;54.93;100885.63;5017113;28;20421;-85
2022/03/19 10:29:33;;;;;;;42.15;17.08;;;;;;;9.42;54.30;100887.63;5009740;28;20081;-85
2022/03/19 10:32:02;;;;;;;34.85;17.85;;;;;;;9.53;56.03;100891.09;5016968;28;20060;-85
2022/03/19 10:34:34;;;;;;;40.25;17.77;;;;;;;9.61;53.02;100895.00;5006656;28;20041;-84
2022/03/19 10:37:04;;;;;;;28.60;13.60;;;;;;;9.58;54.13;100863.53;5011982;28;20050;-85
2022/03/19 10:39:33;;;;;;;;;;;;;;;9.66;51.17;100879.16;5013314;28;20633;-85
2022/03/19 10:42:17;;;;;;;29.55;14.18;;;;;;;9.54;50.80;100860.25;5012454;28;19960;-86
2022/03/19 10:44:48;;;;;;;30.45;14.85;;;;;;;9.81;52.56;100866.03;5011792;28;20060;-86
2022/03/19 10:47:23;;;;;;;22.83;12.43;;;;;;;9.95;51.30;100857.53;5011428;28;20061;-85
2022/03/19 10:49:50;;;;;;;14.98;8.38;;;;;;;9.78;48.77;100847.31;5016243;28;20048;-86
2022/03/19 10:52:17;;;;;;;15.55;8.10;;;;;;;9.62;48.28;100839.66;5013786;28;20074;-85
2022/03/19 10:54:45;;;;;;;17.52;8.30;;;;;;;9.71;48.19;100850.59;5021635;28;20064;-85
2022/03/19 10:57:12;;;;;;;14.80;7.30;;;;;;;9.63;47.61;100833.25;5015068;28;20046;-85
2022/03/19 10:59:41;;;;;;;21.10;8.18;;;;;;;9.76;48.78;100823.00;5019255;28;20388;-85
2022/03/19 11:02:16;;;;;;;14.10;7.82;;;;;;;10.01;48.95;100834.34;5011372;28;20058;-85
2022/03/19 11:04:43;;;;;;;18.38;8.23;;;;;;;9.98;47.37;100815.59;5016092;28;20072;-85
2022/03/19 11:07:12;;;;;;;16.95;8.52;;;;;;;9.96;48.80;100823.91;5019661;28;20056;-84
2022/03/19 11:09:42;;;;;;;15.48;7.15;;;;;;;9.97;48.92;100793.03;5013624;28;20045;-86
2022/03/19 11:12:13;;;;;;;13.40;7.70;;;;;;;10.18;48.13;100817.34;5026122;28;20048;-85
2022/03/19 11:14:42;;;;;;;17.23;8.35;;;;;;;10.42;48.97;100805.25;5020879;28;20046;-85
2022/03/19 11:17:27;;;;;;;18.73;9.30;;;;;;;10.64;49.51;100795.91;5016526;28;20134;-85
2022/03/19 11:20:00;;;;;;;19.13;10.23;;;;;;;10.88;47.22;100792.69;5015274;28;20072;-85
2022/03/19 11:22:29;;;;;;;31.27;9.35;;;;;;;10.60;47.06;100789.91;5012351;28;20064;-86
2022/03/19 11:25:03;;;;;;;16.90;8.27;;;;;;;10.49;48.13;100805.50;5013525;28;20573;-85
2022/03/19 11:27:32;;;;;;;13.50;7.47;;;;;;;10.24;46.63;100803.19;5014757;28;20108;-85
2022/03/19 11:29:59;;;;;;;14.88;7.78;;;;;;;10.39;48.32;100802.81;5014189;28;20054;-85
2022/03/19 11:32:27;;;;;;;20.92;9.18;;;;;;;10.60;47.02;100789.91;5013897;28;20076;-84
2022/03/19 11:34:59;;;;;;;19.52;8.77;;;;;;;10.72;46.72;100792.44;5014382;28;20405;-85
2022/03/19 11:37:46;;;;;;;20.00;10.30;;;;;;;10.61;47.17;100780.75;5014296;28;20053;-85